createdAt,value
2022-11-07T00:04:19.488Z,4.65
2022-11-07T00:06:49.840Z,5.07
2022-11-07T00:09:24.852Z,4.88
2022-11-07T00:12:10.529Z,6.38
2022-11-07T00:14:46.156Z,5.13
2022-11-07T00:17:21.183Z,5.43
2022-11-07T00:20:01.930Z,6.00
2022-11-07T00:22:33.747Z,5.65
2022-11-07T00:25:07.088Z,6.68
2022-11-07T00:27:39.998Z,6.05
2022-11-07T00:30:25.093Z,6.78
2022-11-07T00:36:39.030Z,5.78
2022-11-07T00:42:58.914Z,6.22
2022-11-07T00:48:19.651Z,5.43
2022-11-07T00:51:24.967Z,6.32
2022-11-07T00:54:23.031Z,5.75
2022-11-07T00:57:09.365Z,6.65
2022-11-07T01:03:32.073Z,6.00
2022-11-07T01:06:10.010Z,5.97
2022-11-07T01:08:45.113Z,6.85
2022-11-07T01:11:31.037Z,6.28
2022-11-07T01:14:09.493Z,6.80
2022-11-07T01:16:52.858Z,7.47
2022-11-07T01:19:31.801Z,6.07
2022-11-07T01:24:35.264Z,6.38
2022-11-07T01:27:06.892Z,7.80
2022-11-07T01:29:37.945Z,6.38
2022-11-07T01:32:11.216Z,6.07
2022-11-07T01:34:55.390Z,6.40
2022-11-07T01:37:26.740Z,7.28
2022-11-07T01:39:58.971Z,7.47
2022-11-07T01:42:45.483Z,7.38
2022-11-07T01:45:39.172Z,7.50
2022-11-07T01:48:14.472Z,6.63
2022-11-07T01:50:54.356Z,6.88
2022-11-07T01:55:56.994Z,7.25
2022-11-07T01:58:32.303Z,6.78
2022-11-07T02:01:08.833Z,8.07
2022-11-07T02:03:54.487Z,6.97
2022-11-07T02:09:31.212Z,6.75
2022-11-07T02:19:31.230Z,7.22
2022-11-07T02:25:12.472Z,7.95
2022-11-07T02:28:01.497Z,7.95
2022-11-07T02:30:49.255Z,7.88
2022-11-07T02:33:30.575Z,7.97
2022-11-07T02:36:26.962Z,7.97
2022-11-07T02:39:30.136Z,9.60
2022-11-07T02:42:08.010Z,8.77
2022-11-07T02:45:05.392Z,7.82
2022-11-07T02:47:51.870Z,8.43
2022-11-07T02:50:30.237Z,8.50
2022-11-07T02:53:26.760Z,8.45
2022-11-07T02:56:04.788Z,7.97
2022-11-07T02:58:43.514Z,10.05
2022-11-07T03:01:27.866Z,8.90
2022-11-07T03:04:23.890Z,9.73
2022-11-07T03:07:06.583Z,9.27
2022-11-07T03:09:41.935Z,9.55
2022-11-07T03:12:30.152Z,8.75
2022-11-07T03:15:00.202Z,8.40
2022-11-07T03:20:20.800Z,8.68
2022-11-07T03:25:42.810Z,9.25
2022-11-07T03:28:26.089Z,10.48
2022-11-07T03:31:19.364Z,8.38
2022-11-07T03:33:59.290Z,7.57
2022-11-07T03:36:31.570Z,9.77
2022-11-07T03:39:02.486Z,9.98
2022-11-07T03:41:34.890Z,9.45
2022-11-07T03:44:17.436Z,9.05
2022-11-07T03:47:06.035Z,9.48
2022-11-07T03:49:40.051Z,8.50
2022-11-07T03:52:09.234Z,10.85
2022-11-07T03:54:44.851Z,9.00
2022-11-07T03:57:20.998Z,10.68
2022-11-07T03:59:55.197Z,9.93
2022-11-07T04:04:56.510Z,8.50
2022-11-07T04:07:25.361Z,9.68
2022-11-07T04:10:02.968Z,9.05
2022-11-07T04:12:55.620Z,9.20
2022-11-07T04:15:53.995Z,9.80
2022-11-07T04:18:23.459Z,10.25
2022-11-07T04:21:00.099Z,8.63
2022-11-07T04:23:41.780Z,9.10
2022-11-07T04:26:42.153Z,8.13
2022-11-07T04:29:27.144Z,9.23
2022-11-07T04:32:07.331Z,8.65
2022-11-07T04:34:44.046Z,9.60
2022-11-07T04:37:24.847Z,9.00
2022-11-07T04:39:57.485Z,8.88
2022-11-07T04:42:26.664Z,8.90
2022-11-07T04:45:04.558Z,9.23
2022-11-07T04:47:59.336Z,9.57
2022-11-07T04:50:27.847Z,9.02
2022-11-07T04:52:58.646Z,8.75
2022-11-07T04:55:31.434Z,9.38
2022-11-07T04:57:59.798Z,7.95
2022-11-07T05:00:28.086Z,8.82
2022-11-07T05:02:56.873Z,8.40
2022-11-07T05:05:26.510Z,9.60
2022-11-07T05:07:54.861Z,8.65
2022-11-07T05:10:27.139Z,9.02
2022-11-07T05:15:24.299Z,8.65
2022-11-07T05:17:52.735Z,9.32
2022-11-07T05:20:38.723Z,8.57
2022-11-07T05:23:23.126Z,9.10
2022-11-07T05:25:53.588Z,8.30
2022-11-07T05:28:33.552Z,8.32
2022-11-07T05:31:04.262Z,8.52
2022-11-07T05:33:32.769Z,9.02
2022-11-07T05:36:22.644Z,9.45
2022-11-07T05:38:52.861Z,9.13
2022-11-07T05:41:22.657Z,9.48
2022-11-07T05:43:50.984Z,8.68
2022-11-07T05:46:18.965Z,9.15
2022-11-07T05:48:47.212Z,9.13
2022-11-07T05:51:15.464Z,8.38
2022-11-07T05:53:44.386Z,9.43
2022-11-07T05:56:13.008Z,9.02
2022-11-07T05:58:41.248Z,9.63
2022-11-07T06:01:09.420Z,9.77
2022-11-07T06:03:39.133Z,9.27
2022-11-07T06:06:07.808Z,9.10
2022-11-07T06:08:36.363Z,9.40
2022-11-07T06:11:06.666Z,10.02
2022-11-07T06:13:37.300Z,9.43
2022-11-07T06:16:05.928Z,8.88
2022-11-07T06:18:41.577Z,7.88
2022-11-07T06:21:10.106Z,8.45
2022-11-07T06:23:38.088Z,8.48
2022-11-07T06:26:06.702Z,9.38
2022-11-07T06:28:34.572Z,8.88
2022-11-07T06:31:03.144Z,8.70
2022-11-07T06:33:31.177Z,9.55
2022-11-07T06:36:09.077Z,9.40
2022-11-07T06:38:38.365Z,10.32
2022-11-07T06:41:09.445Z,9.27
2022-11-07T06:43:38.036Z,10.02
2022-11-07T06:46:11.006Z,9.95
2022-11-07T06:48:39.292Z,8.52
2022-11-07T06:51:10.366Z,8.98
2022-11-07T06:53:41.998Z,8.82
2022-11-07T06:56:14.573Z,8.82
2022-11-07T06:58:42.976Z,8.13
2022-11-07T07:01:16.461Z,9.70
2022-11-07T07:03:45.058Z,9.88
2022-11-07T07:06:15.881Z,8.73
2022-11-07T07:08:45.378Z,9.70
2022-11-07T07:11:14.593Z,8.90
2022-11-07T07:13:43.067Z,8.57
2022-11-07T07:16:11.054Z,10.32
2022-11-07T07:18:39.300Z,9.48
2022-11-07T07:21:09.858Z,8.05
2022-11-07T07:23:39.246Z,9.52
2022-11-07T07:26:12.384Z,9.57
2022-11-07T07:28:40.541Z,8.30
2022-11-07T07:33:49.429Z,8.95
2022-11-07T07:36:20.920Z,8.27
2022-11-07T07:38:49.790Z,8.32
2022-11-07T07:41:18.695Z,8.25
2022-11-07T07:43:46.370Z,8.43
2022-11-07T07:46:16.543Z,8.77
2022-11-07T07:48:44.253Z,8.90
2022-11-07T07:51:11.931Z,9.55
2022-11-07T07:53:39.740Z,8.35
2022-11-07T07:56:08.040Z,7.03
2022-11-07T07:58:35.883Z,7.93
2022-11-07T08:01:10.641Z,8.73
2022-11-07T08:03:59.693Z,8.82
2022-11-07T08:06:26.688Z,8.20
2022-11-07T08:08:54.353Z,8.70
2022-11-07T08:11:22.155Z,7.97
2022-11-07T08:13:49.631Z,8.68
2022-11-07T08:16:17.250Z,9.13
2022-11-07T08:18:44.739Z,8.68
2022-11-07T08:21:12.337Z,8.73
2022-11-07T08:23:39.849Z,7.80
2022-11-07T08:26:07.783Z,8.60
2022-11-07T08:28:36.609Z,8.20
2022-11-07T08:33:43.968Z,8.48
2022-11-07T08:36:11.660Z,9.27
2022-11-07T08:38:39.443Z,8.80
2022-11-07T08:41:07.038Z,8.18
2022-11-07T08:43:34.590Z,10.00
2022-11-07T08:46:02.841Z,8.30
2022-11-07T08:48:30.434Z,8.35
2022-11-07T08:50:59.696Z,8.40
2022-11-07T08:53:27.537Z,7.15
2022-11-07T08:56:03.388Z,8.50
2022-11-07T08:58:31.073Z,9.10
2022-11-07T09:00:59.272Z,8.30
2022-11-07T09:06:14.586Z,7.43
2022-11-07T09:08:42.135Z,8.55
2022-11-07T09:11:10.072Z,8.90
2022-11-07T09:13:40.917Z,8.80
2022-11-07T09:16:08.491Z,9.60
2022-11-07T09:18:35.973Z,8.38
2022-11-07T09:21:03.515Z,9.10
2022-11-07T09:23:31.486Z,8.40
2022-11-07T09:26:01.266Z,8.85
2022-11-07T09:28:29.460Z,8.35
2022-11-07T09:30:58.634Z,7.85
2022-11-07T09:33:26.532Z,8.15
2022-11-07T09:35:54.587Z,7.32
2022-11-07T09:38:22.127Z,8.52
2022-11-07T09:40:56.713Z,8.38
2022-11-07T09:44:04.905Z,8.35
2022-11-07T09:49:23.761Z,7.57
2022-11-07T09:51:59.114Z,7.32
2022-11-07T09:54:32.930Z,7.68
2022-11-07T09:57:01.242Z,9.35
2022-11-07T09:59:38.123Z,7.82
2022-11-07T10:02:15.559Z,7.55
2022-11-07T10:04:44.602Z,6.32
2022-11-07T10:10:02.380Z,7.05
2022-11-07T10:12:47.718Z,7.15
2022-11-07T10:26:17.009Z,6.70
2022-11-07T10:28:48.732Z,6.90
2022-11-07T10:31:17.131Z,7.18
2022-11-07T10:34:05.396Z,7.30
2022-11-07T10:36:33.921Z,7.07
2022-11-07T10:39:02.073Z,6.32
2022-11-07T10:41:32.312Z,7.38
2022-11-07T10:44:05.133Z,7.82
2022-11-07T10:52:18.393Z,6.10
2022-11-07T10:54:46.724Z,6.93
2022-11-07T11:00:08.294Z,7.43
2022-11-07T11:02:53.137Z,7.80
2022-11-07T11:05:33.348Z,6.60
2022-11-07T11:10:52.586Z,7.22
2022-11-07T11:18:51.527Z,6.55
2022-11-07T11:21:19.162Z,7.15
2022-11-07T11:23:47.569Z,7.60
2022-11-07T11:29:02.039Z,6.72
2022-11-07T11:34:19.955Z,7.05
2022-11-07T11:36:57.633Z,7.65
2022-11-07T11:39:33.194Z,7.95
2022-11-07T11:42:00.979Z,8.18
2022-11-07T11:44:46.129Z,7.30
2022-11-07T11:49:58.889Z,8.38
2022-11-07T11:52:27.836Z,9.05
2022-11-07T11:54:58.005Z,8.30
2022-11-07T12:03:07.936Z,8.77
2022-11-07T12:15:10.153Z,7.55
2022-11-07T12:17:49.882Z,8.88
2022-11-07T12:20:27.547Z,7.72
2022-11-07T12:26:04.948Z,8.45
2022-11-07T12:29:12.257Z,9.10
2022-11-07T12:34:45.563Z,7.70
2022-11-07T12:37:52.949Z,8.77
2022-11-07T12:46:22.219Z,8.48
2022-11-07T12:56:45.568Z,8.18
2022-11-07T12:59:21.240Z,8.25
2022-11-07T13:04:58.477Z,10.20
2022-11-07T13:07:52.656Z,10.90
2022-11-07T13:10:39.814Z,10.75
2022-11-07T13:13:36.426Z,10.77
2022-11-07T13:19:11.794Z,10.27
2022-11-07T13:21:43.771Z,10.60
2022-11-07T13:24:22.713Z,10.05
2022-11-07T13:26:50.550Z,10.23
2022-11-07T13:29:39.642Z,9.25
2022-11-07T13:32:13.610Z,9.43
2022-11-07T13:35:00.877Z,10.10
2022-11-07T13:37:32.858Z,10.82
2022-11-07T13:45:19.142Z,8.88
2022-11-07T13:47:48.178Z,11.02
2022-11-07T13:50:41.229Z,8.52
2022-11-07T13:53:19.764Z,9.75
2022-11-07T13:56:01.925Z,10.38
2022-11-07T13:58:31.872Z,10.15
2022-11-07T14:01:15.287Z,8.95
2022-11-07T14:03:43.442Z,9.23
2022-11-07T14:06:16.648Z,10.40
2022-11-07T14:08:48.274Z,9.57
2022-11-07T14:11:19.719Z,10.98
2022-11-07T14:13:50.750Z,9.90
2022-11-07T14:16:25.376Z,8.35
2022-11-07T14:18:58.687Z,9.85
2022-11-07T14:21:28.892Z,9.55
2022-11-07T14:23:57.463Z,9.48
2022-11-07T14:26:28.504Z,9.73
2022-11-07T14:28:57.918Z,10.52
2022-11-07T14:31:31.909Z,10.88
2022-11-07T14:34:02.165Z,11.60
2022-11-07T14:36:30.381Z,10.32
2022-11-07T14:39:11.304Z,11.10
2022-11-07T14:41:43.459Z,10.40
2022-11-07T14:44:17.851Z,11.27
2022-11-07T14:46:46.283Z,11.82
2022-11-07T14:49:25.651Z,10.07
2022-11-07T14:51:55.896Z,10.80
2022-11-07T14:54:30.860Z,10.75
2022-11-07T14:56:59.594Z,10.60
2022-11-07T14:59:33.580Z,11.60
2022-11-07T15:02:24.029Z,11.07
2022-11-07T15:04:52.077Z,12.30
2022-11-07T15:07:26.250Z,11.23
2022-11-07T15:09:56.520Z,10.77
2022-11-07T15:12:30.111Z,12.15
2022-11-07T15:15:23.779Z,9.63
2022-11-07T15:17:53.968Z,10.55
2022-11-07T15:23:03.436Z,12.02
2022-11-07T15:28:30.465Z,12.73
2022-11-07T15:31:00.403Z,11.48
2022-11-07T15:33:33.181Z,11.52
2022-11-07T15:36:02.038Z,10.93
2022-11-07T15:38:30.315Z,12.55
2022-11-07T15:40:57.760Z,12.23
2022-11-07T15:43:25.197Z,11.98
2022-11-07T15:45:53.801Z,11.48
2022-11-07T15:48:26.707Z,11.98
2022-11-07T15:50:54.654Z,11.63
2022-11-07T15:53:24.979Z,11.50
2022-11-07T15:55:54.777Z,10.68
2022-11-07T15:58:24.709Z,11.45
2022-11-07T16:00:53.455Z,10.50
2022-11-07T16:03:23.442Z,11.18
2022-11-07T16:05:53.046Z,10.70
2022-11-07T16:08:23.157Z,12.30
2022-11-07T16:10:54.181Z,11.35
2022-11-07T16:13:22.028Z,12.20
2022-11-07T16:15:53.780Z,10.82
2022-11-07T16:18:22.480Z,12.60
2022-11-07T16:20:51.035Z,12.35
2022-11-07T16:23:19.517Z,11.57
2022-11-07T16:25:50.411Z,11.48
2022-11-07T16:30:54.742Z,11.25
2022-11-07T16:33:23.746Z,12.32
2022-11-07T16:35:54.307Z,10.63
2022-11-07T16:38:24.161Z,10.30
2022-11-07T16:40:52.909Z,10.10
2022-11-07T16:43:21.280Z,10.50
2022-11-07T16:45:52.725Z,11.20
2022-11-07T16:48:26.267Z,10.43
2022-11-07T16:50:55.685Z,10.38
2022-11-07T16:53:24.342Z,12.25
2022-11-07T16:55:54.749Z,11.00
2022-11-07T16:58:32.139Z,10.55
2022-11-07T17:01:05.489Z,10.57
2022-11-07T17:03:34.164Z,9.15
2022-11-07T17:06:04.293Z,10.10
2022-11-07T17:08:38.262Z,9.60
2022-11-07T17:11:06.224Z,10.82
2022-11-07T17:13:33.906Z,9.57
2022-11-07T17:16:01.503Z,9.77
2022-11-07T17:18:29.245Z,9.65
2022-11-07T17:20:56.992Z,10.80
2022-11-07T17:23:29.907Z,10.07
2022-11-07T17:26:00.489Z,9.85
2022-11-07T17:28:28.109Z,8.95
2022-11-07T17:30:55.607Z,8.98
2022-11-07T17:33:23.119Z,9.23
2022-11-07T17:35:55.104Z,9.82
2022-11-07T17:40:49.765Z,8.65
2022-11-07T17:43:17.354Z,8.93
2022-11-07T17:45:45.033Z,9.18
2022-11-07T17:48:12.452Z,9.02
2022-11-07T17:50:40.711Z,9.40
2022-11-07T17:53:08.202Z,9.10
2022-11-07T17:55:35.949Z,9.45
2022-11-07T17:58:03.362Z,9.65
2022-11-07T18:00:30.920Z,9.73
2022-11-07T18:02:58.653Z,9.52
2022-11-07T18:05:32.903Z,9.40
2022-11-07T18:08:01.387Z,9.70
2022-11-07T18:10:30.140Z,9.63
2022-11-07T18:12:57.970Z,10.50
2022-11-07T18:15:25.626Z,8.98
2022-11-07T18:17:53.246Z,9.40
2022-11-07T18:20:20.876Z,10.68
2022-11-07T18:22:48.358Z,10.40
2022-11-07T18:25:16.010Z,9.18
2022-11-07T18:27:44.192Z,9.52
2022-11-07T18:30:12.738Z,9.60
2022-11-07T18:32:40.222Z,8.30
2022-11-07T18:35:07.959Z,8.43
2022-11-07T18:37:35.670Z,9.15
2022-11-07T18:40:03.590Z,8.90
2022-11-07T18:42:31.829Z,8.35
2022-11-07T18:44:59.364Z,8.23
2022-11-07T18:47:27.010Z,8.50
2022-11-07T18:49:57.309Z,9.38
2022-11-07T18:52:25.304Z,8.32
2022-11-07T18:54:52.999Z,9.23
2022-11-07T18:57:20.767Z,9.80
2022-11-07T18:59:48.341Z,9.48
2022-11-07T19:02:16.001Z,8.18
2022-11-07T19:04:45.114Z,8.75
2022-11-07T19:07:12.792Z,9.02
2022-11-07T19:09:40.320Z,9.52
2022-11-07T19:12:08.037Z,9.90
2022-11-07T19:14:35.659Z,9.38
2022-11-07T19:17:03.323Z,9.02
2022-11-07T19:19:30.866Z,8.63
2022-11-07T19:21:58.346Z,8.98
2022-11-07T19:24:25.887Z,9.98
2022-11-07T19:26:53.388Z,9.70
2022-11-07T19:29:21.111Z,10.18
2022-11-07T19:31:48.770Z,9.85
2022-11-07T19:34:18.391Z,9.23
2022-11-07T19:36:46.175Z,8.98
2022-11-07T19:39:13.846Z,8.52
2022-11-07T19:41:41.420Z,9.52
2022-11-07T19:44:09.148Z,9.98
2022-11-07T19:46:37.056Z,9.05
2022-11-07T19:49:04.819Z,11.07
2022-11-07T19:51:33.094Z,9.60
2022-11-07T19:54:01.337Z,10.52
2022-11-07T19:56:31.891Z,9.98
2022-11-07T19:59:01.619Z,8.88
2022-11-07T20:01:32.025Z,11.27
2022-11-07T20:04:00.891Z,10.90
2022-11-07T20:06:32.833Z,8.75
2022-11-07T20:09:01.772Z,9.88
2022-11-07T20:11:29.492Z,10.63
2022-11-07T20:14:02.722Z,9.77
2022-11-07T20:16:31.883Z,9.80
2022-11-07T20:19:00.317Z,9.20
2022-11-07T20:21:29.455Z,9.90
2022-11-07T20:23:59.833Z,10.45
2022-11-07T20:26:29.492Z,11.00
2022-11-07T20:28:57.201Z,11.18
2022-11-07T20:31:29.569Z,9.77
2022-11-07T20:34:00.967Z,9.63
2022-11-07T20:36:29.323Z,10.00
2022-11-07T20:38:58.043Z,9.73
2022-11-07T20:41:27.496Z,9.15
2022-11-07T20:43:58.132Z,10.15
2022-11-07T20:46:26.449Z,10.18
2022-11-07T20:48:54.405Z,10.60
2022-11-07T20:51:25.545Z,9.38
2022-11-07T20:53:53.802Z,9.88
2022-11-07T20:56:23.195Z,10.90
2022-11-07T20:58:51.021Z,9.73
2022-11-07T21:01:22.589Z,10.23
2022-11-07T21:03:50.714Z,9.45
2022-11-07T21:06:19.155Z,10.55
2022-11-07T21:08:50.198Z,10.30
2022-11-07T21:11:17.711Z,10.32
2022-11-07T21:13:51.400Z,10.20
2022-11-07T21:16:22.083Z,10.40
2022-11-07T21:18:50.971Z,10.50
2022-11-07T21:21:21.261Z,10.80
2022-11-07T21:23:50.934Z,10.70
2022-11-07T21:26:22.023Z,9.35
2022-11-07T21:28:49.685Z,10.48
2022-11-07T21:31:22.166Z,10.55
2022-11-07T21:33:50.292Z,9.98
2022-11-07T21:36:21.955Z,10.45
2022-11-07T21:38:49.690Z,10.15
2022-11-07T21:41:17.724Z,10.27
2022-11-07T21:43:45.476Z,9.00
2022-11-07T21:46:23.613Z,10.70
2022-11-07T21:48:52.475Z,10.18
2022-11-07T21:53:59.657Z,10.38
2022-11-07T21:56:30.187Z,9.27
2022-11-07T21:59:01.049Z,9.73
2022-11-07T22:01:35.417Z,11.38
2022-11-07T22:04:08.743Z,10.20
2022-11-07T22:06:40.196Z,9.30
2022-11-07T22:09:09.289Z,11.15
2022-11-07T22:11:37.461Z,10.20
2022-11-07T22:14:05.168Z,9.60
2022-11-07T22:16:32.960Z,11.63
2022-11-07T22:19:00.665Z,10.27
2022-11-07T22:21:28.249Z,10.95
2022-11-07T22:23:56.449Z,10.75
2022-11-07T22:26:26.307Z,11.15
2022-11-07T22:28:54.377Z,11.02
2022-11-07T22:31:28.822Z,10.50
2022-11-07T22:33:57.539Z,10.10
2022-11-07T22:36:24.966Z,10.13
2022-11-07T22:38:52.434Z,10.73
2022-11-07T22:41:23.457Z,10.65
2022-11-07T22:43:51.497Z,10.93
2022-11-07T22:46:22.013Z,10.82
2022-11-07T22:48:50.377Z,10.63
2022-11-07T22:51:21.777Z,12.32
2022-11-07T22:53:56.328Z,12.32
2022-11-07T22:56:23.869Z,10.88
2022-11-07T22:58:51.354Z,11.45
2022-11-07T23:01:21.869Z,11.50
2022-11-07T23:03:49.890Z,11.70
2022-11-07T23:06:19.220Z,12.88
2022-11-07T23:08:47.156Z,12.00
2022-11-07T23:11:45.406Z,13.55
2022-11-07T23:14:08.053Z,12.52
2022-11-07T23:16:37.904Z,11.52
2022-11-07T23:19:09.478Z,13.20
2022-11-07T23:21:36.969Z,12.55
2022-11-07T23:24:05.139Z,13.43
2022-11-07T23:26:34.932Z,12.80
2022-11-07T23:29:10.561Z,12.95
2022-11-07T23:31:41.123Z,12.45
2022-11-07T23:34:09.031Z,11.52
2022-11-07T23:36:37.019Z,13.32
2022-11-07T23:39:06.316Z,12.05
2022-11-07T23:41:34.181Z,11.63
2022-11-07T23:44:02.141Z,10.18
2022-11-07T23:46:49.932Z,13.60
2022-11-07T23:49:37.158Z,12.02
2022-11-07T23:52:05.133Z,9.93
2022-11-07T23:54:53.819Z,12.02
2022-11-07T23:57:21.470Z,12.18
